sensor_id;sensor_type;location;lat;lon;timestamp;P1;durP1;ratioP1;P2;durP2;ratioP2
6344;SDS011;3205;42.666;23.264;2023-02-27T00:01:25;82.97;;;31.17;;
6344;SDS011;3205;42.666;23.264;2023-02-27T00:03:51;32.20;;;11.10;;
6344;SDS011;3205;42.666;23.264;2023-02-27T00:06:17;32.07;;;9.97;;
6344;SDS011;3205;42.666;23.264;2023-02-27T00:08:43;32.17;;;10.03;;
6344;SDS011;3205;42.666;23.264;2023-02-27T00:11:10;26.40;;;9.30;;
6344;SDS011;3205;42.666;23.264;2023-02-27T00:13:36;33.13;;;9.83;;
6344;SDS011;3205;42.666;23.264;2023-02-27T00:16:02;33.37;;;8.97;;
6344;SDS011;3205;42.666;23.264;2023-02-27T00:18:29;35.47;;;10.00;;
6344;SDS011;3205;42.666;23.264;2023-02-27T00:20:55;28.43;;;9.10;;
6344;SDS011;3205;42.666;23.264;2023-02-27T00:23:21;18.63;;;8.80;;
6344;SDS011;3205;42.666;23.264;2023-02-27T00:25:47;26.50;;;9.80;;
6344;SDS011;3205;42.666;23.264;2023-02-27T00:28:14;44.83;;;11.77;;
6344;SDS011;3205;42.666;23.264;2023-02-27T00:30:40;30.63;;;11.03;;
6344;SDS011;3205;42.666;23.264;2023-02-27T00:33:07;34.63;;;9.00;;
6344;SDS011;3205;42.666;23.264;2023-02-27T00:35:33;55.93;;;17.83;;
6344;SDS011;3205;42.666;23.264;2023-02-27T00:37:59;41.37;;;13.37;;
6344;SDS011;3205;42.666;23.264;2023-02-27T00:40:25;22.20;;;9.97;;
6344;SDS011;3205;42.666;23.264;2023-02-27T00:42:57;69.37;;;28.13;;
6344;SDS011;3205;42.666;23.264;2023-02-27T00:45:24;42.37;;;12.73;;
6344;SDS011;3205;42.666;23.264;2023-02-27T00:47:50;38.80;;;11.77;;
6344;SDS011;3205;42.666;23.264;2023-02-27T00:50:16;43.33;;;14.63;;
6344;SDS011;3205;42.666;23.264;2023-02-27T00:52:42;32.37;;;10.73;;
6344;SDS011;3205;42.666;23.264;2023-02-27T00:55:09;25.17;;;9.07;;
6344;SDS011;3205;42.666;23.264;2023-02-27T00:57:35;30.93;;;8.77;;
6344;SDS011;3205;42.666;23.264;2023-02-27T01:00:03;39.43;;;8.57;;
6344;SDS011;3205;42.666;23.264;2023-02-27T01:02:31;32.60;;;7.60;;
6344;SDS011;3205;42.666;23.264;2023-02-27T01:04:57;30.97;;;7.40;;
6344;SDS011;3205;42.666;23.264;2023-02-27T01:07:23;24.97;;;6.77;;
6344;SDS011;3205;42.666;23.264;2023-02-27T01:09:49;31.13;;;7.27;;
6344;SDS011;3205;42.666;23.264;2023-02-27T01:12:15;28.80;;;6.13;;
6344;SDS011;3205;42.666;23.264;2023-02-27T01:14:42;30.37;;;5.73;;
6344;SDS011;3205;42.666;23.264;2023-02-27T01:17:08;26.17;;;5.63;;
6344;SDS011;3205;42.666;23.264;2023-02-27T01:19:35;34.83;;;6.47;;
6344;SDS011;3205;42.666;23.264;2023-02-27T01:22:01;36.07;;;5.47;;
6344;SDS011;3205;42.666;23.264;2023-02-27T01:24:27;32.10;;;6.27;;
6344;SDS011;3205;42.666;23.264;2023-02-27T01:26:53;27.07;;;6.30;;
6344;SDS011;3205;42.666;23.264;2023-02-27T01:29:19;20.20;;;5.70;;
6344;SDS011;3205;42.666;23.264;2023-02-27T01:31:45;19.27;;;5.60;;
6344;SDS011;3205;42.666;23.264;2023-02-27T01:34:12;29.23;;;5.73;;
6344;SDS011;3205;42.666;23.264;2023-02-27T01:36:39;32.77;;;6.53;;
6344;SDS011;3205;42.666;23.264;2023-02-27T01:39:05;23.47;;;5.63;;
6344;SDS011;3205;42.666;23.264;2023-02-27T01:41:31;26.90;;;5.37;;
6344;SDS011;3205;42.666;23.264;2023-02-27T01:43:58;29.17;;;7.03;;
6344;SDS011;3205;42.666;23.264;2023-02-27T01:46:26;36.00;;;7.67;;
6344;SDS011;3205;42.666;23.264;2023-02-27T01:48:54;37.13;;;8.03;;
6344;SDS011;3205;42.666;23.264;2023-02-27T01:51:24;37.40;;;8.33;;
6344;SDS011;3205;42.666;23.264;2023-02-27T01:53:53;26.37;;;7.33;;
6344;SDS011;3205;42.666;23.264;2023-02-27T01:56:21;32.57;;;7.60;;
6344;SDS011;3205;42.666;23.264;2023-02-27T01:58:52;19.53;;;8.13;;
6344;SDS011;3205;42.666;23.264;2023-02-27T02:01:21;27.60;;;7.83;;
6344;SDS011;3205;42.666;23.264;2023-02-27T02:03:49;32.27;;;7.87;;
6344;SDS011;3205;42.666;23.264;2023-02-27T02:06:20;21.57;;;7.73;;
6344;SDS011;3205;42.666;23.264;2023-02-27T02:08:47;29.60;;;7.73;;
6344;SDS011;3205;42.666;23.264;2023-02-27T02:11:17;32.13;;;7.97;;
6344;SDS011;3205;42.666;23.264;2023-02-27T02:13:45;30.57;;;9.00;;
6344;SDS011;3205;42.666;23.264;2023-02-27T02:16:18;33.70;;;9.67;;
6344;SDS011;3205;42.666;23.264;2023-02-27T02:18:53;38.13;;;9.83;;
6344;SDS011;3205;42.666;23.264;2023-02-27T02:21:39;20.17;;;4.37;;
6344;SDS011;3205;42.666;23.264;2023-02-27T02:24:33;19.63;;;2.97;;
6344;SDS011;3205;42.666;23.264;2023-02-27T02:27:24;13.93;;;2.50;;
6344;SDS011;3205;42.666;23.264;2023-02-27T02:39:19;6.03;;;1.77;;
6344;SDS011;3205;42.666;23.264;2023-02-27T02:42:15;4.40;;;1.63;;
6344;SDS011;3205;42.666;23.264;2023-02-27T02:44:47;5.57;;;1.60;;
6344;SDS011;3205;42.666;23.264;2023-02-27T02:47:21;8.53;;;1.93;;
6344;SDS011;3205;42.666;23.264;2023-02-27T02:49:55;3.57;;;1.83;;
6344;SDS011;3205;42.666;23.264;2023-02-27T02:52:28;2.80;;;1.40;;
6344;SDS011;3205;42.666;23.264;2023-02-27T02:55:06;5.73;;;1.60;;
6344;SDS011;3205;42.666;23.264;2023-02-27T02:57:37;6.87;;;1.70;;
6344;SDS011;3205;42.666;23.264;2023-02-27T03:00:09;5.57;;;1.33;;
6344;SDS011;3205;42.666;23.264;2023-02-27T03:02:42;7.83;;;3.47;;
6344;SDS011;3205;42.666;23.264;2023-02-27T03:05:12;8.53;;;4.23;;
6344;SDS011;3205;42.666;23.264;2023-02-27T03:07:44;8.17;;;5.33;;
6344;SDS011;3205;42.666;23.264;2023-02-27T03:10:16;9.43;;;5.40;;
6344;SDS011;3205;42.666;23.264;2023-02-27T03:12:47;11.13;;;6.13;;
6344;SDS011;3205;42.666;23.264;2023-02-27T03:15:17;15.80;;;6.90;;
6344;SDS011;3205;42.666;23.264;2023-02-27T03:17:48;11.57;;;6.00;;
6344;SDS011;3205;42.666;23.264;2023-02-27T03:20:18;9.33;;;6.00;;
6344;SDS011;3205;42.666;23.264;2023-02-27T03:22:49;12.23;;;6.67;;
6344;SDS011;3205;42.666;23.264;2023-02-27T03:25:20;11.43;;;6.33;;
6344;SDS011;3205;42.666;23.264;2023-02-27T03:27:50;19.87;;;7.50;;
6344;SDS011;3205;42.666;23.264;2023-02-27T03:30:22;11.80;;;6.70;;
6344;SDS011;3205;42.666;23.264;2023-02-27T03:32:54;10.90;;;6.70;;
6344;SDS011;3205;42.666;23.264;2023-02-27T03:35:25;10.93;;;6.00;;
6344;SDS011;3205;42.666;23.264;2023-02-27T03:38:02;13.17;;;7.20;;
6344;SDS011;3205;42.666;23.264;2023-02-27T03:40:37;13.03;;;7.00;;
6344;SDS011;3205;42.666;23.264;2023-02-27T03:43:08;12.90;;;6.73;;
6344;SDS011;3205;42.666;23.264;2023-02-27T03:45:44;9.70;;;6.37;;
6344;SDS011;3205;42.666;23.264;2023-02-27T03:48:18;12.73;;;6.43;;
6344;SDS011;3205;42.666;23.264;2023-02-27T03:50:45;12.60;;;7.20;;
6344;SDS011;3205;42.666;23.264;2023-02-27T03:53:12;11.80;;;6.83;;
6344;SDS011;3205;42.666;23.264;2023-02-27T03:55:47;12.13;;;5.67;;
6344;SDS011;3205;42.666;23.264;2023-02-27T03:58:14;13.97;;;5.77;;
6344;SDS011;3205;42.666;23.264;2023-02-27T04:00:41;10.97;;;5.83;;
6344;SDS011;3205;42.666;23.264;2023-02-27T04:03:07;11.90;;;6.17;;
6344;SDS011;3205;42.666;23.264;2023-02-27T04:05:34;9.30;;;6.10;;
6344;SDS011;3205;42.666;23.264;2023-02-27T04:11:10;9.53;;;5.53;;
6344;SDS011;3205;42.666;23.264;2023-02-27T04:13:54;10.70;;;6.33;;
6344;SDS011;3205;42.666;23.264;2023-02-27T04:16:33;12.67;;;6.07;;
6344;SDS011;3205;42.666;23.264;2023-02-27T04:19:17;12.97;;;6.83;;
6344;SDS011;3205;42.666;23.264;2023-02-27T04:22:05;16.20;;;6.70;;
6344;SDS011;3205;42.666;23.264;2023-02-27T04:24:41;11.93;;;6.37;;
6344;SDS011;3205;42.666;23.264;2023-02-27T04:27:18;13.10;;;6.93;;
6344;SDS011;3205;42.666;23.264;2023-02-27T04:29:52;12.27;;;6.17;;
6344;SDS011;3205;42.666;23.264;2023-02-27T04:32:24;9.43;;;6.00;;
6344;SDS011;3205;42.666;23.264;2023-02-27T04:34:56;13.20;;;6.50;;
6344;SDS011;3205;42.666;23.264;2023-02-27T04:37:28;9.67;;;5.73;;
6344;SDS011;3205;42.666;23.264;2023-02-27T04:40:01;12.03;;;6.20;;
6344;SDS011;3205;42.666;23.264;2023-02-27T04:42:33;12.00;;;6.53;;
6344;SDS011;3205;42.666;23.264;2023-02-27T04:45:03;13.87;;;6.80;;
6344;SDS011;3205;42.666;23.264;2023-02-27T04:47:33;12.90;;;6.50;;
6344;SDS011;3205;42.666;23.264;2023-02-27T04:50:08;12.00;;;6.53;;
6344;SDS011;3205;42.666;23.264;2023-02-27T04:52:37;12.60;;;7.83;;
6344;SDS011;3205;42.666;23.264;2023-02-27T04:55:08;13.43;;;7.67;;
6344;SDS011;3205;42.666;23.264;2023-02-27T04:57:39;12.50;;;7.03;;
6344;SDS011;3205;42.666;23.264;2023-02-27T05:00:10;15.57;;;7.13;;
6344;SDS011;3205;42.666;23.264;2023-02-27T05:02:40;17.27;;;8.20;;
6344;SDS011;3205;42.666;23.264;2023-02-27T05:05:10;17.03;;;7.53;;
6344;SDS011;3205;42.666;23.264;2023-02-27T05:07:41;14.70;;;7.90;;
6344;SDS011;3205;42.666;23.264;2023-02-27T05:10:14;12.40;;;7.43;;
6344;SDS011;3205;42.666;23.264;2023-02-27T05:12:47;13.67;;;7.10;;
6344;SDS011;3205;42.666;23.264;2023-02-27T05:15:17;15.00;;;7.70;;
6344;SDS011;3205;42.666;23.264;2023-02-27T05:17:51;12.43;;;7.03;;
6344;SDS011;3205;42.666;23.264;2023-02-27T05:20:26;8.53;;;5.83;;
6344;SDS011;3205;42.666;23.264;2023-02-27T05:22:57;9.23;;;4.70;;
6344;SDS011;3205;42.666;23.264;2023-02-27T05:25:30;7.73;;;4.43;;
6344;SDS011;3205;42.666;23.264;2023-02-27T05:28:03;7.60;;;4.47;;
6344;SDS011;3205;42.666;23.264;2023-02-27T05:30:34;7.03;;;5.03;;
6344;SDS011;3205;42.666;23.264;2023-02-27T05:33:05;8.70;;;5.07;;
6344;SDS011;3205;42.666;23.264;2023-02-27T05:35:37;8.77;;;4.17;;
6344;SDS011;3205;42.666;23.264;2023-02-27T05:38:10;5.37;;;4.23;;
6344;SDS011;3205;42.666;23.264;2023-02-27T05:40:43;9.50;;;4.57;;
6344;SDS011;3205;42.666;23.264;2023-02-27T05:43:14;4.60;;;3.60;;
6344;SDS011;3205;42.666;23.264;2023-02-27T05:45:44;7.30;;;4.43;;
6344;SDS011;3205;42.666;23.264;2023-02-27T05:48:15;8.23;;;4.13;;
6344;SDS011;3205;42.666;23.264;2023-02-27T05:50:45;6.47;;;3.83;;
6344;SDS011;3205;42.666;23.264;2023-02-27T05:53:16;8.73;;;4.33;;
6344;SDS011;3205;42.666;23.264;2023-02-27T05:55:45;3.50;;;3.13;;
6344;SDS011;3205;42.666;23.264;2023-02-27T05:58:15;5.90;;;3.40;;
6344;SDS011;3205;42.666;23.264;2023-02-27T06:00:46;6.03;;;4.10;;
6344;SDS011;3205;42.666;23.264;2023-02-27T06:03:17;4.80;;;3.70;;
6344;SDS011;3205;42.666;23.264;2023-02-27T06:05:43;5.93;;;4.27;;
6344;SDS011;3205;42.666;23.264;2023-02-27T06:08:10;6.93;;;4.33;;
6344;SDS011;3205;42.666;23.264;2023-02-27T06:10:37;4.40;;;3.70;;
6344;SDS011;3205;42.666;23.264;2023-02-27T06:13:03;3.93;;;3.13;;
6344;SDS011;3205;42.666;23.264;2023-02-27T06:15:30;5.17;;;3.90;;
6344;SDS011;3205;42.666;23.264;2023-02-27T06:17:56;3.00;;;2.70;;
6344;SDS011;3205;42.666;23.264;2023-02-27T06:20:22;3.90;;;2.70;;
6344;SDS011;3205;42.666;23.264;2023-02-27T06:22:48;4.87;;;2.50;;
6344;SDS011;3205;42.666;23.264;2023-02-27T06:25:14;4.47;;;3.07;;
6344;SDS011;3205;42.666;23.264;2023-02-27T06:27:40;3.17;;;2.50;;
6344;SDS011;3205;42.666;23.264;2023-02-27T06:30:07;5.43;;;3.30;;
6344;SDS011;3205;42.666;23.264;2023-02-27T06:32:34;3.70;;;2.97;;
6344;SDS011;3205;42.666;23.264;2023-02-27T06:35:01;3.10;;;2.23;;
6344;SDS011;3205;42.666;23.264;2023-02-27T06:37:27;3.27;;;2.97;;
6344;SDS011;3205;42.666;23.264;2023-02-27T06:39:53;3.43;;;2.50;;
6344;SDS011;3205;42.666;23.264;2023-02-27T06:42:19;2.87;;;2.43;;
6344;SDS011;3205;42.666;23.264;2023-02-27T06:44:45;3.17;;;2.80;;
6344;SDS011;3205;42.666;23.264;2023-02-27T06:47:11;5.80;;;3.97;;
6344;SDS011;3205;42.666;23.264;2023-02-27T06:49:38;4.27;;;3.03;;
6344;SDS011;3205;42.666;23.264;2023-02-27T06:52:04;2.70;;;2.50;;
6344;SDS011;3205;42.666;23.264;2023-02-27T06:54:30;4.57;;;3.40;;
6344;SDS011;3205;42.666;23.264;2023-02-27T06:56:56;4.50;;;3.07;;
6344;SDS011;3205;42.666;23.264;2023-02-27T06:59:22;5.30;;;3.53;;
6344;SDS011;3205;42.666;23.264;2023-02-27T07:01:49;6.50;;;3.47;;
6344;SDS011;3205;42.666;23.264;2023-02-27T07:04:15;5.07;;;3.33;;
6344;SDS011;3205;42.666;23.264;2023-02-27T07:06:42;4.87;;;2.93;;
6344;SDS011;3205;42.666;23.264;2023-02-27T07:09:08;3.13;;;2.43;;
6344;SDS011;3205;42.666;23.264;2023-02-27T07:11:34;3.60;;;3.00;;
6344;SDS011;3205;42.666;23.264;2023-02-27T07:14:00;3.97;;;2.70;;
6344;SDS011;3205;42.666;23.264;2023-02-27T07:16:26;2.77;;;2.20;;
6344;SDS011;3205;42.666;23.264;2023-02-27T07:18:53;4.23;;;2.70;;
6344;SDS011;3205;42.666;23.264;2023-02-27T07:21:19;5.43;;;2.53;;
6344;SDS011;3205;42.666;23.264;2023-02-27T07:23:45;2.67;;;2.47;;
6344;SDS011;3205;42.666;23.264;2023-02-27T07:26:12;4.23;;;2.80;;
6344;SDS011;3205;42.666;23.264;2023-02-27T07:28:38;3.33;;;2.87;;
6344;SDS011;3205;42.666;23.264;2023-02-27T07:31:04;3.60;;;3.13;;
6344;SDS011;3205;42.666;23.264;2023-02-27T07:33:30;4.03;;;3.07;;
6344;SDS011;3205;42.666;23.264;2023-02-27T07:35:58;4.67;;;3.77;;
6344;SDS011;3205;42.666;23.264;2023-02-27T07:38:24;3.87;;;3.40;;
6344;SDS011;3205;42.666;23.264;2023-02-27T07:40:52;3.70;;;3.37;;
6344;SDS011;3205;42.666;23.264;2023-02-27T07:43:18;6.90;;;3.13;;
6344;SDS011;3205;42.666;23.264;2023-02-27T07:45:44;3.23;;;2.90;;
6344;SDS011;3205;42.666;23.264;2023-02-27T07:48:10;7.30;;;3.27;;
6344;SDS011;3205;42.666;23.264;2023-02-27T07:50:37;4.67;;;3.33;;
6344;SDS011;3205;42.666;23.264;2023-02-27T07:53:03;6.03;;;3.40;;
6344;SDS011;3205;42.666;23.264;2023-02-27T07:55:29;5.70;;;3.20;;
6344;SDS011;3205;42.666;23.264;2023-02-27T07:57:58;3.10;;;2.80;;
6344;SDS011;3205;42.666;23.264;2023-02-27T08:00:24;3.45;;;2.67;;
6344;SDS011;3205;42.666;23.264;2023-02-27T08:02:50;3.60;;;2.80;;
6344;SDS011;3205;42.666;23.264;2023-02-27T08:05:16;6.87;;;3.20;;
6344;SDS011;3205;42.666;23.264;2023-02-27T08:07:42;3.40;;;3.10;;
6344;SDS011;3205;42.666;23.264;2023-02-27T08:10:09;5.33;;;2.40;;
6344;SDS011;3205;42.666;23.264;2023-02-27T08:12:36;3.20;;;2.47;;
6344;SDS011;3205;42.666;23.264;2023-02-27T08:15:04;2.60;;;2.40;;
6344;SDS011;3205;42.666;23.264;2023-02-27T08:17:31;3.33;;;2.10;;
6344;SDS011;3205;42.666;23.264;2023-02-27T08:19:57;6.80;;;2.90;;
6344;SDS011;3205;42.666;23.264;2023-02-27T08:22:24;4.03;;;2.80;;
6344;SDS011;3205;42.666;23.264;2023-02-27T08:24:50;8.00;;;2.63;;
6344;SDS011;3205;42.666;23.264;2023-02-27T08:27:16;3.00;;;2.70;;
6344;SDS011;3205;42.666;23.264;2023-02-27T08:29:42;3.17;;;2.95;;
6344;SDS011;3205;42.666;23.264;2023-02-27T08:32:10;3.25;;;2.83;;
6344;SDS011;3205;42.666;23.264;2023-02-27T08:34:36;4.75;;;2.45;;
6344;SDS011;3205;42.666;23.264;2023-02-27T08:37:02;2.70;;;2.50;;
6344;SDS011;3205;42.666;23.264;2023-02-27T08:39:28;3.03;;;2.38;;
6344;SDS011;3205;42.666;23.264;2023-02-27T08:41:54;4.68;;;2.53;;
6344;SDS011;3205;42.666;23.264;2023-02-27T08:44:20;4.03;;;2.20;;
6344;SDS011;3205;42.666;23.264;2023-02-27T08:46:47;4.10;;;2.00;;
6344;SDS011;3205;42.666;23.264;2023-02-27T08:49:13;1.73;;;1.63;;
6344;SDS011;3205;42.666;23.264;2023-02-27T08:51:39;7.20;;;2.20;;
6344;SDS011;3205;42.666;23.264;2023-02-27T08:54:06;4.80;;;2.20;;
6344;SDS011;3205;42.666;23.264;2023-02-27T08:56:32;6.07;;;2.20;;
6344;SDS011;3205;42.666;23.264;2023-02-27T08:58:59;4.37;;;2.47;;
6344;SDS011;3205;42.666;23.264;2023-02-27T09:01:25;3.33;;;2.70;;
6344;SDS011;3205;42.666;23.264;2023-02-27T09:03:55;2.97;;;2.60;;
6344;SDS011;3205;42.666;23.264;2023-02-27T09:06:22;6.97;;;2.60;;
6344;SDS011;3205;42.666;23.264;2023-02-27T09:08:48;1.90;;;1.80;;
6344;SDS011;3205;42.666;23.264;2023-02-27T09:11:14;2.27;;;2.07;;
6344;SDS011;3205;42.666;23.264;2023-02-27T09:13:40;2.70;;;2.23;;
6344;SDS011;3205;42.666;23.264;2023-02-27T09:16:06;3.67;;;2.50;;
6344;SDS011;3205;42.666;23.264;2023-02-27T09:18:33;3.43;;;2.37;;
6344;SDS011;3205;42.666;23.264;2023-02-27T09:20:59;2.80;;;2.60;;
6344;SDS011;3205;42.666;23.264;2023-02-27T09:23:26;3.33;;;2.30;;
6344;SDS011;3205;42.666;23.264;2023-02-27T09:25:52;5.00;;;2.43;;
6344;SDS011;3205;42.666;23.264;2023-02-27T09:28:18;4.90;;;2.90;;
6344;SDS011;3205;42.666;23.264;2023-02-27T09:30:45;4.70;;;3.00;;
6344;SDS011;3205;42.666;23.264;2023-02-27T09:33:11;5.47;;;2.57;;
6344;SDS011;3205;42.666;23.264;2023-02-27T09:35:39;4.03;;;2.63;;
6344;SDS011;3205;42.666;23.264;2023-02-27T09:38:05;7.57;;;2.80;;
6344;SDS011;3205;42.666;23.264;2023-02-27T09:40:36;4.27;;;2.97;;
6344;SDS011;3205;42.666;23.264;2023-02-27T09:43:07;11.07;;;3.23;;
6344;SDS011;3205;42.666;23.264;2023-02-27T09:45:36;7.20;;;3.47;;
6344;SDS011;3205;42.666;23.264;2023-02-27T09:48:04;4.63;;;3.53;;
6344;SDS011;3205;42.666;23.264;2023-02-27T09:50:35;3.70;;;2.90;;
6344;SDS011;3205;42.666;23.264;2023-02-27T09:53:03;3.70;;;3.40;;
6344;SDS011;3205;42.666;23.264;2023-02-27T09:55:33;10.93;;;3.77;;
6344;SDS011;3205;42.666;23.264;2023-02-27T09:58:03;5.00;;;3.50;;
6344;SDS011;3205;42.666;23.264;2023-02-27T10:00:43;9.10;;;4.00;;
6344;SDS011;3205;42.666;23.264;2023-02-27T10:03:18;11.83;;;4.10;;
6344;SDS011;3205;42.666;23.264;2023-02-27T10:06:02;6.13;;;3.80;;
6344;SDS011;3205;42.666;23.264;2023-02-27T10:08:41;5.27;;;3.73;;
6344;SDS011;3205;42.666;23.264;2023-02-27T10:11:18;5.93;;;3.93;;
6344;SDS011;3205;42.666;23.264;2023-02-27T10:13:52;7.73;;;3.97;;
6344;SDS011;3205;42.666;23.264;2023-02-27T10:16:23;6.37;;;4.30;;
6344;SDS011;3205;42.666;23.264;2023-02-27T10:18:52;7.10;;;4.07;;
6344;SDS011;3205;42.666;23.264;2023-02-27T10:21:23;6.17;;;4.10;;
6344;SDS011;3205;42.666;23.264;2023-02-27T10:23:54;5.90;;;4.50;;
6344;SDS011;3205;42.666;23.264;2023-02-27T10:26:25;5.80;;;4.23;;
6344;SDS011;3205;42.666;23.264;2023-02-27T10:28:54;6.87;;;4.57;;
6344;SDS011;3205;42.666;23.264;2023-02-27T10:31:21;6.30;;;4.50;;
6344;SDS011;3205;42.666;23.264;2023-02-27T10:33:50;7.27;;;4.67;;
6344;SDS011;3205;42.666;23.264;2023-02-27T10:36:17;7.50;;;4.77;;
6344;SDS011;3205;42.666;23.264;2023-02-27T10:38:47;9.60;;;4.60;;
6344;SDS011;3205;42.666;23.264;2023-02-27T10:41:17;10.63;;;5.00;;
6344;SDS011;3205;42.666;23.264;2023-02-27T10:43:45;14.10;;;5.67;;
6344;SDS011;3205;42.666;23.264;2023-02-27T10:46:12;6.40;;;5.30;;
6344;SDS011;3205;42.666;23.264;2023-02-27T10:48:40;13.33;;;5.60;;
6344;SDS011;3205;42.666;23.264;2023-02-27T10:51:20;11.20;;;6.47;;
6344;SDS011;3205;42.666;23.264;2023-02-27T10:53:48;10.20;;;6.17;;
6344;SDS011;3205;42.666;23.264;2023-02-27T10:56:18;10.07;;;6.10;;
6344;SDS011;3205;42.666;23.264;2023-02-27T10:59:00;8.63;;;6.20;;
6344;SDS011;3205;42.666;23.264;2023-02-27T11:01:39;11.97;;;5.60;;
6344;SDS011;3205;42.666;23.264;2023-02-27T11:04:07;8.67;;;6.10;;
6344;SDS011;3205;42.666;23.264;2023-02-27T11:06:33;16.83;;;6.47;;
6344;SDS011;3205;42.666;23.264;2023-02-27T11:09:10;8.47;;;6.00;;
6344;SDS011;3205;42.666;23.264;2023-02-27T11:11:42;9.90;;;6.47;;
6344;SDS011;3205;42.666;23.264;2023-02-27T11:14:22;18.03;;;6.00;;
6344;SDS011;3205;42.666;23.264;2023-02-27T11:16:51;10.83;;;6.50;;
6344;SDS011;3205;42.666;23.264;2023-02-27T11:19:28;11.33;;;6.10;;
6344;SDS011;3205;42.666;23.264;2023-02-27T11:22:04;9.77;;;6.13;;
6344;SDS011;3205;42.666;23.264;2023-02-27T11:24:31;12.83;;;7.50;;
6344;SDS011;3205;42.666;23.264;2023-02-27T11:26:58;8.20;;;6.60;;
6344;SDS011;3205;42.666;23.264;2023-02-27T11:29:28;18.00;;;6.80;;
6344;SDS011;3205;42.666;23.264;2023-02-27T11:31:55;10.57;;;6.20;;
6344;SDS011;3205;42.666;23.264;2023-02-27T11:34:24;11.50;;;7.37;;
6344;SDS011;3205;42.666;23.264;2023-02-27T11:36:53;10.93;;;7.10;;
6344;SDS011;3205;42.666;23.264;2023-02-27T11:39:25;10.30;;;7.10;;
6344;SDS011;3205;42.666;23.264;2023-02-27T11:44:53;19.90;;;7.67;;
6344;SDS011;3205;42.666;23.264;2023-02-27T11:47:24;11.47;;;7.53;;
6344;SDS011;3205;42.666;23.264;2023-02-27T11:50:01;11.33;;;7.47;;
6344;SDS011;3205;42.666;23.264;2023-02-27T11:52:36;14.47;;;7.53;;
6344;SDS011;3205;42.666;23.264;2023-02-27T11:55:07;13.77;;;7.27;;
6344;SDS011;3205;42.666;23.264;2023-02-27T11:57:40;11.47;;;8.07;;
6344;SDS011;3205;42.666;23.264;2023-02-27T12:00:14;15.03;;;7.67;;
6344;SDS011;3205;42.666;23.264;2023-02-27T12:02:44;14.77;;;7.27;;
6344;SDS011;3205;42.666;23.264;2023-02-27T12:05:22;16.07;;;7.77;;
6344;SDS011;3205;42.666;23.264;2023-02-27T12:07:53;36.03;;;18.70;;
6344;SDS011;3205;42.666;23.264;2023-02-27T12:10:25;17.80;;;7.43;;
6344;SDS011;3205;42.666;23.264;2023-02-27T12:12:54;11.50;;;7.37;;
6344;SDS011;3205;42.666;23.264;2023-02-27T12:15:28;11.07;;;6.47;;
6344;SDS011;3205;42.666;23.264;2023-02-27T12:18:02;14.57;;;7.10;;
6344;SDS011;3205;42.666;23.264;2023-02-27T12:20:37;13.80;;;7.90;;
6344;SDS011;3205;42.666;23.264;2023-02-27T12:23:14;17.43;;;7.80;;
6344;SDS011;3205;42.666;23.264;2023-02-27T12:25:46;12.13;;;6.70;;
6344;SDS011;3205;42.666;23.264;2023-02-27T12:28:26;16.37;;;8.73;;
6344;SDS011;3205;42.666;23.264;2023-02-27T12:31:04;25.13;;;8.80;;
6344;SDS011;3205;42.666;23.264;2023-02-27T12:33:43;25.30;;;7.87;;
6344;SDS011;3205;42.666;23.264;2023-02-27T12:36:14;16.87;;;8.47;;
6344;SDS011;3205;42.666;23.264;2023-02-27T12:38:40;13.17;;;7.57;;
6344;SDS011;3205;42.666;23.264;2023-02-27T12:44:01;17.07;;;8.37;;
6344;SDS011;3205;42.666;23.264;2023-02-27T12:46:43;11.17;;;7.90;;
6344;SDS011;3205;42.666;23.264;2023-02-27T12:49:20;19.33;;;9.37;;
6344;SDS011;3205;42.666;23.264;2023-02-27T12:51:56;12.60;;;7.60;;
6344;SDS011;3205;42.666;23.264;2023-02-27T12:54:31;15.07;;;7.80;;
6344;SDS011;3205;42.666;23.264;2023-02-27T12:57:12;16.93;;;7.53;;
6344;SDS011;3205;42.666;23.264;2023-02-27T12:59:51;11.17;;;7.63;;
6344;SDS011;3205;42.666;23.264;2023-02-27T13:02:43;16.60;;;7.60;;
6344;SDS011;3205;42.666;23.264;2023-02-27T13:05:19;15.97;;;8.07;;
6344;SDS011;3205;42.666;23.264;2023-02-27T13:08:10;16.70;;;7.87;;
6344;SDS011;3205;42.666;23.264;2023-02-27T13:10:57;18.57;;;7.83;;
6344;SDS011;3205;42.666;23.264;2023-02-27T13:13:31;14.47;;;7.63;;
6344;SDS011;3205;42.666;23.264;2023-02-27T13:16:04;14.63;;;7.63;;
6344;SDS011;3205;42.666;23.264;2023-02-27T13:18:37;20.50;;;7.40;;
6344;SDS011;3205;42.666;23.264;2023-02-27T13:21:10;14.27;;;7.93;;
6344;SDS011;3205;42.666;23.264;2023-02-27T13:23:41;15.40;;;9.13;;
6344;SDS011;3205;42.666;23.264;2023-02-27T13:26:20;13.70;;;7.17;;
6344;SDS011;3205;42.666;23.264;2023-02-27T13:28:48;7.17;;;5.20;;
6344;SDS011;3205;42.666;23.264;2023-02-27T13:31:18;7.83;;;5.53;;
6344;SDS011;3205;42.666;23.264;2023-02-27T13:34:00;10.23;;;5.33;;
6344;SDS011;3205;42.666;23.264;2023-02-27T13:36:38;7.43;;;5.03;;
6344;SDS011;3205;42.666;23.264;2023-02-27T13:51:05;7.53;;;4.60;;
6344;SDS011;3205;42.666;23.264;2023-02-27T13:53:35;8.93;;;4.73;;
6344;SDS011;3205;42.666;23.264;2023-02-27T13:56:16;9.90;;;5.27;;
6344;SDS011;3205;42.666;23.264;2023-02-27T13:58:45;10.90;;;5.50;;
6344;SDS011;3205;42.666;23.264;2023-02-27T14:01:14;9.70;;;5.13;;
6344;SDS011;3205;42.666;23.264;2023-02-27T14:03:43;11.23;;;6.43;;
6344;SDS011;3205;42.666;23.264;2023-02-27T14:06:18;17.57;;;5.10;;
6344;SDS011;3205;42.666;23.264;2023-02-27T14:08:47;8.73;;;5.20;;
6344;SDS011;3205;42.666;23.264;2023-02-27T14:11:16;9.07;;;5.27;;
6344;SDS011;3205;42.666;23.264;2023-02-27T14:13:56;9.23;;;5.20;;
6344;SDS011;3205;42.666;23.264;2023-02-27T14:22:30;11.47;;;5.50;;
6344;SDS011;3205;42.666;23.264;2023-02-27T14:25:02;9.37;;;5.70;;
6344;SDS011;3205;42.666;23.264;2023-02-27T14:27:43;12.03;;;6.60;;
6344;SDS011;3205;42.666;23.264;2023-02-27T14:30:21;10.77;;;6.50;;
6344;SDS011;3205;42.666;23.264;2023-02-27T14:32:53;10.77;;;6.53;;
6344;SDS011;3205;42.666;23.264;2023-02-27T14:35:21;16.63;;;7.17;;
6344;SDS011;3205;42.666;23.264;2023-02-27T14:37:48;10.67;;;5.90;;
6344;SDS011;3205;42.666;23.264;2023-02-27T14:40:18;11.67;;;6.33;;
6344;SDS011;3205;42.666;23.264;2023-02-27T14:42:48;9.40;;;6.03;;
6344;SDS011;3205;42.666;23.264;2023-02-27T14:45:22;10.93;;;5.87;;
6344;SDS011;3205;42.666;23.264;2023-02-27T14:47:49;8.73;;;6.87;;
6344;SDS011;3205;42.666;23.264;2023-02-27T14:50:21;12.47;;;6.63;;
6344;SDS011;3205;42.666;23.264;2023-02-27T14:52:50;6.63;;;5.47;;
6344;SDS011;3205;42.666;23.264;2023-02-27T14:55:17;8.33;;;6.20;;
6344;SDS011;3205;42.666;23.264;2023-02-27T14:57:54;12.00;;;6.70;;
6344;SDS011;3205;42.666;23.264;2023-02-27T15:00:31;12.10;;;6.87;;
6344;SDS011;3205;42.666;23.264;2023-02-27T15:03:00;10.87;;;6.93;;
6344;SDS011;3205;42.666;23.264;2023-02-27T15:05:36;20.97;;;8.13;;
6344;SDS011;3205;42.666;23.264;2023-02-27T15:08:04;13.13;;;7.50;;
6344;SDS011;3205;42.666;23.264;2023-02-27T15:10:30;12.63;;;6.70;;
6344;SDS011;3205;42.666;23.264;2023-02-27T15:12:57;10.83;;;6.60;;
6344;SDS011;3205;42.666;23.264;2023-02-27T15:15:24;16.93;;;7.13;;
6344;SDS011;3205;42.666;23.264;2023-02-27T15:17:51;12.67;;;7.80;;
6344;SDS011;3205;42.666;23.264;2023-02-27T15:20:22;15.30;;;8.90;;
6344;SDS011;3205;42.666;23.264;2023-02-27T15:22:51;12.23;;;7.30;;
6344;SDS011;3205;42.666;23.264;2023-02-27T15:25:25;15.23;;;6.87;;
6344;SDS011;3205;42.666;23.264;2023-02-27T15:27:54;13.80;;;6.83;;
6344;SDS011;3205;42.666;23.264;2023-02-27T15:30:22;19.23;;;8.20;;
6344;SDS011;3205;42.666;23.264;2023-02-27T15:32:48;19.77;;;8.17;;
6344;SDS011;3205;42.666;23.264;2023-02-27T15:35:15;19.77;;;8.63;;
6344;SDS011;3205;42.666;23.264;2023-02-27T15:37:45;15.47;;;8.70;;
6344;SDS011;3205;42.666;23.264;2023-02-27T15:40:16;19.40;;;8.73;;
6344;SDS011;3205;42.666;23.264;2023-02-27T15:42:46;16.93;;;8.30;;
6344;SDS011;3205;42.666;23.264;2023-02-27T15:45:14;13.27;;;8.70;;
6344;SDS011;3205;42.666;23.264;2023-02-27T15:47:44;17.03;;;9.60;;